createdAt,value
2022-11-13T00:02:50.083Z,1.49
2022-11-13T00:08:10.371Z,1.35
2022-11-13T00:13:30.909Z,1.36
2022-11-13T00:18:51.439Z,1.21
2022-11-13T00:24:11.370Z,1.23
2022-11-13T00:29:31.683Z,1.10
2022-11-13T00:34:52.715Z,1.05
2022-11-13T00:40:12.828Z,1.38
2022-11-13T00:45:33.169Z,1.41
2022-11-13T00:50:54.098Z,1.36
2022-11-13T00:56:14.423Z,0.87
2022-11-13T01:01:34.792Z,0.85
2022-11-13T01:06:55.686Z,0.86
2022-11-13T01:12:16.231Z,1.37
2022-11-13T01:17:36.965Z,1.05
2022-11-13T01:22:56.893Z,0.90
2022-11-13T01:28:17.263Z,0.94
2022-11-13T01:33:37.913Z,1.14
2022-11-13T01:38:58.591Z,1.22
2022-11-13T01:44:20.031Z,1.40
2022-11-13T01:49:42.495Z,1.52
2022-11-13T01:55:11.760Z,1.47
2022-11-13T02:00:32.058Z,1.54
2022-11-13T02:05:53.965Z,1.57
2022-11-13T02:11:14.602Z,1.60
2022-11-13T02:16:37.297Z,1.78
2022-11-13T02:22:26.343Z,1.82
2022-11-13T02:27:48.984Z,1.83
2022-11-13T02:33:30.764Z,1.90
2022-11-13T02:38:53.661Z,1.86
2022-11-13T02:44:13.637Z,1.79
2022-11-13T02:49:34.013Z,2.03
2022-11-13T02:54:54.219Z,1.97
2022-11-13T03:00:15.163Z,1.93
2022-11-13T03:05:35.333Z,2.23
2022-11-13T03:10:55.793Z,2.42
2022-11-13T03:16:17.071Z,2.39
2022-11-13T03:21:37.413Z,2.26
2022-11-13T03:26:57.697Z,2.22
2022-11-13T03:32:18.631Z,2.38
2022-11-13T03:37:39.098Z,2.52
2022-11-13T03:42:59.090Z,2.53
2022-11-13T03:48:19.313Z,2.44
2022-11-13T03:53:39.786Z,2.22
2022-11-13T03:59:00.047Z,2.08
2022-11-13T04:04:20.488Z,1.91
2022-11-13T04:09:40.629Z,1.68
2022-11-13T04:15:00.868Z,1.70
2022-11-13T04:20:21.149Z,1.64
2022-11-13T04:25:41.499Z,1.59
2022-11-13T04:31:01.700Z,1.48
2022-11-13T04:36:22.026Z,1.22
2022-11-13T04:42:00.861Z,1.28
2022-11-13T04:47:21.139Z,1.30
2022-11-13T04:52:41.925Z,1.21
2022-11-13T04:58:02.052Z,1.16
2022-11-13T05:03:22.270Z,1.20
2022-11-13T05:08:42.508Z,1.29
2022-11-13T05:14:04.929Z,1.20
2022-11-13T05:19:25.142Z,1.09
2022-11-13T05:24:45.381Z,1.17
2022-11-13T05:30:06.135Z,1.28
2022-11-13T05:35:26.504Z,1.23
2022-11-13T05:40:46.704Z,1.04
2022-11-13T05:46:13.189Z,1.08
2022-11-13T05:51:34.495Z,1.11
2022-11-13T05:56:54.623Z,1.07
2022-11-13T06:02:15.031Z,1.08
2022-11-13T06:07:35.371Z,0.91
2022-11-13T06:12:55.489Z,0.67
2022-11-13T06:18:15.730Z,0.73
2022-11-13T06:23:37.804Z,0.86
2022-11-13T06:28:59.066Z,0.69
2022-11-13T06:34:19.197Z,0.77
2022-11-13T06:39:39.193Z,0.63
2022-11-13T06:44:59.517Z,0.70
2022-11-13T06:50:19.762Z,0.69
2022-11-13T06:55:49.847Z,0.80
2022-11-13T07:01:21.919Z,0.93
2022-11-13T07:06:42.414Z,0.98
2022-11-13T07:12:02.983Z,1.08
2022-11-13T07:17:23.116Z,1.15
2022-11-13T07:22:43.326Z,1.29
2022-11-13T07:28:03.742Z,1.61
2022-11-13T07:33:23.959Z,1.63
2022-11-13T07:38:44.528Z,1.71
2022-11-13T07:44:08.933Z,1.86
2022-11-13T07:49:29.677Z,1.98
2022-11-13T07:54:49.743Z,2.03
2022-11-13T08:00:10.453Z,2.17
2022-11-13T08:05:30.713Z,2.25
2022-11-13T08:10:50.705Z,2.48
2022-11-13T08:16:11.389Z,2.49
2022-11-13T08:21:31.642Z,2.59
2022-11-13T08:26:51.826Z,2.77
2022-11-13T08:32:15.754Z,3.02
2022-11-13T08:37:36.180Z,3.18
2022-11-13T08:43:00.413Z,3.29
2022-11-13T08:48:20.566Z,3.45
2022-11-13T08:53:40.810Z,3.31
2022-11-13T08:59:01.178Z,3.59
2022-11-13T09:04:22.336Z,3.84
2022-11-13T09:09:42.587Z,3.78
2022-11-13T09:15:03.000Z,4.01
2022-11-13T09:20:25.019Z,4.20
2022-11-13T09:25:45.026Z,4.31
2022-11-13T09:31:06.756Z,4.24
2022-11-13T09:36:26.728Z,4.62
2022-11-13T09:41:59.468Z,4.97
2022-11-13T09:47:30.552Z,5.30
2022-11-13T09:52:52.065Z,5.36
2022-11-13T09:58:32.009Z,5.56
2022-11-13T10:04:03.862Z,5.89
2022-11-13T10:09:31.770Z,5.80
2022-11-13T10:14:57.351Z,6.00
2022-11-13T10:21:09.315Z,6.19
2022-11-13T10:26:29.982Z,6.36
2022-11-13T10:31:52.470Z,6.63
2022-11-13T10:37:45.161Z,7.10
2022-11-13T10:43:13.246Z,8.72
2022-11-13T10:48:35.848Z,9.65
2022-11-13T10:53:58.796Z,9.96
2022-11-13T10:59:20.178Z,10.52
2022-11-13T11:04:40.089Z,11.51
2022-11-13T11:10:00.326Z,11.56
2022-11-13T11:15:42.026Z,12.33
2022-11-13T11:21:07.995Z,12.54
2022-11-13T11:26:39.548Z,11.70
2022-11-13T11:32:27.032Z,11.31
2022-11-13T11:37:57.748Z,10.04
2022-11-13T11:43:29.197Z,9.47
2022-11-13T11:48:50.203Z,9.44
2022-11-13T11:54:39.488Z,9.80
2022-11-13T11:59:59.826Z,10.34
2022-11-13T12:05:29.678Z,10.03
2022-11-13T12:11:15.015Z,8.89
2022-11-13T12:16:42.617Z,8.61
2022-11-13T12:22:06.745Z,8.19
2022-11-13T12:27:47.913Z,8.09
2022-11-13T12:33:37.360Z,8.07
2022-11-13T12:39:03.547Z,8.09
2022-11-13T12:44:24.651Z,7.77
2022-11-13T12:49:45.047Z,7.90
2022-11-13T12:55:09.028Z,7.89
2022-11-13T13:00:31.210Z,7.97
2022-11-13T13:06:20.609Z,7.81
2022-11-13T13:11:53.820Z,7.94
2022-11-13T13:17:13.657Z,7.83
2022-11-13T13:22:35.629Z,7.77
2022-11-13T13:28:21.184Z,8.05
2022-11-13T13:34:03.640Z,7.80
2022-11-13T13:39:26.572Z,7.88
2022-11-13T13:45:22.310Z,7.93
2022-11-13T13:50:48.392Z,7.93
2022-11-13T13:56:12.096Z,7.90
2022-11-13T14:01:34.029Z,8.05
2022-11-13T14:06:59.174Z,7.90
2022-11-13T14:12:21.930Z,7.93
2022-11-13T14:17:41.885Z,7.88
2022-11-13T14:23:02.530Z,7.78
2022-11-13T14:28:26.986Z,7.57
2022-11-13T14:33:49.921Z,7.73
2022-11-13T14:39:28.010Z,7.52
2022-11-13T14:44:48.328Z,7.42
2022-11-13T14:50:11.400Z,7.44
2022-11-13T14:55:34.226Z,7.27
2022-11-13T15:00:54.284Z,7.19
2022-11-13T15:06:15.381Z,7.07
2022-11-13T15:11:36.851Z,7.07
2022-11-13T15:16:58.938Z,6.84
2022-11-13T15:22:28.109Z,6.86
2022-11-13T15:27:49.340Z,6.84
2022-11-13T15:33:14.973Z,6.76
2022-11-13T15:38:35.243Z,6.53
2022-11-13T15:43:56.318Z,6.49
2022-11-13T15:49:16.366Z,6.60
2022-11-13T15:54:38.706Z,6.47
2022-11-13T15:59:58.970Z,6.39
2022-11-13T16:05:19.694Z,6.17
2022-11-13T16:10:39.664Z,6.17
2022-11-13T16:16:00.869Z,6.30
2022-11-13T16:21:22.044Z,6.12
2022-11-13T16:26:50.595Z,6.24
2022-11-13T16:32:16.448Z,6.20
2022-11-13T16:37:36.526Z,6.15
2022-11-13T16:42:57.643Z,6.23
2022-11-13T16:48:18.431Z,6.15
2022-11-13T16:53:38.676Z,6.19
2022-11-13T16:58:59.097Z,6.10
2022-11-13T17:04:19.039Z,5.83
2022-11-13T17:09:41.445Z,5.91
2022-11-13T17:15:01.680Z,5.98
2022-11-13T17:20:21.853Z,5.89
2022-11-13T17:25:42.036Z,5.92
2022-11-13T17:31:07.266Z,5.89
2022-11-13T17:36:27.485Z,5.89
2022-11-13T17:41:47.740Z,5.98
2022-11-13T17:47:08.396Z,5.60
2022-11-13T17:52:28.311Z,5.48
2022-11-13T17:57:48.545Z,5.63
2022-11-13T18:03:08.779Z,5.51
2022-11-13T18:08:30.136Z,5.38
2022-11-13T18:13:51.326Z,5.32
2022-11-13T18:19:11.455Z,4.95
2022-11-13T18:24:31.632Z,4.75
2022-11-13T18:29:52.383Z,4.59
2022-11-13T18:35:12.654Z,4.49
2022-11-13T18:40:33.053Z,4.36
2022-11-13T18:46:04.619Z,4.36
2022-11-13T18:51:28.458Z,4.59
2022-11-13T18:56:48.546Z,4.69
2022-11-13T19:02:11.244Z,4.87
2022-11-13T19:07:31.899Z,4.91
2022-11-13T19:12:51.972Z,4.90
2022-11-13T19:18:12.232Z,4.78
2022-11-13T19:23:32.724Z,4.66
2022-11-13T19:28:53.975Z,4.63
2022-11-13T19:34:14.674Z,4.43
2022-11-13T19:39:35.112Z,4.29
2022-11-13T19:44:55.244Z,4.64
2022-11-13T19:50:16.031Z,4.76
2022-11-13T19:55:36.451Z,4.64
2022-11-13T20:00:57.253Z,4.53
2022-11-13T20:06:18.083Z,4.14
2022-11-13T20:11:38.603Z,4.28
2022-11-13T20:16:59.303Z,4.35
2022-11-13T20:22:19.628Z,4.27
2022-11-13T20:27:45.951Z,4.13
2022-11-13T20:33:07.451Z,4.17
2022-11-13T20:38:28.953Z,4.29
2022-11-13T20:43:50.135Z,4.70
2022-11-13T20:49:10.457Z,5.06
2022-11-13T20:54:30.680Z,5.53
2022-11-13T20:59:51.099Z,5.97
2022-11-13T21:05:11.329Z,6.13
2022-11-13T21:10:33.028Z,6.38
2022-11-13T21:15:53.538Z,6.38
2022-11-13T21:21:18.708Z,6.38
2022-11-13T21:26:38.845Z,6.38
2022-11-13T21:31:59.137Z,6.26
2022-11-13T21:37:19.466Z,6.06
2022-11-13T21:42:39.968Z,6.41
2022-11-13T21:48:00.343Z,6.49
2022-11-13T21:53:20.443Z,6.53
2022-11-13T21:58:41.437Z,6.82
2022-11-13T22:04:01.928Z,6.89
2022-11-13T22:09:25.284Z,6.93
2022-11-13T22:14:45.611Z,6.84
2022-11-13T22:20:06.473Z,6.80
2022-11-13T22:25:26.937Z,6.74
2022-11-13T22:30:47.250Z,6.65
2022-11-13T22:36:13.733Z,6.58
2022-11-13T22:41:35.657Z,6.38
2022-11-13T22:46:55.729Z,6.47
2022-11-13T22:52:16.039Z,6.41
2022-11-13T22:57:36.501Z,6.30
2022-11-13T23:03:00.459Z,6.29
2022-11-13T23:08:21.270Z,6.32
2022-11-13T23:13:45.936Z,6.20
2022-11-13T23:19:06.281Z,6.03
2022-11-13T23:24:26.411Z,6.03
2022-11-13T23:29:50.048Z,5.93
2022-11-13T23:35:10.577Z,5.99
2022-11-13T23:40:30.948Z,5.85
2022-11-13T23:45:51.946Z,5.78
2022-11-13T23:51:12.172Z,5.90
2022-11-13T23:56:32.467Z,6.00
